sensor_id;sensor_type;location;lat;lon;timestamp;P1;durP1;ratioP1;P2;durP2;ratioP2
73850;SDS011;62190;51.548;5.688;2023-03-16T00:00:15;9.20;;;5.10;;
73850;SDS011;62190;51.548;5.688;2023-03-16T00:02:43;8.00;;;4.65;;
73850;SDS011;62190;51.548;5.688;2023-03-16T00:05:11;10.53;;;5.17;;
73850;SDS011;62190;51.548;5.688;2023-03-16T00:07:40;7.50;;;5.15;;
73850;SDS011;62190;51.548;5.688;2023-03-16T00:10:08;8.90;;;4.85;;
73850;SDS011;62190;51.548;5.688;2023-03-16T00:12:37;7.05;;;5.15;;
73850;SDS011;62190;51.548;5.688;2023-03-16T00:15:04;8.85;;;4.85;;
73850;SDS011;62190;51.548;5.688;2023-03-16T00:17:32;6.05;;;4.33;;
73850;SDS011;62190;51.548;5.688;2023-03-16T00:19:59;8.83;;;4.62;;
73850;SDS011;62190;51.548;5.688;2023-03-16T00:22:29;7.60;;;4.75;;
73850;SDS011;62190;51.548;5.688;2023-03-16T00:24:57;7.20;;;5.15;;
73850;SDS011;62190;51.548;5.688;2023-03-16T00:27:25;9.38;;;4.20;;
73850;SDS011;62190;51.548;5.688;2023-03-16T00:29:53;6.33;;;4.35;;
73850;SDS011;62190;51.548;5.688;2023-03-16T00:32:27;8.45;;;5.12;;
73850;SDS011;62190;51.548;5.688;2023-03-16T00:34:50;8.45;;;4.90;;
73850;SDS011;62190;51.548;5.688;2023-03-16T00:37:18;9.43;;;5.03;;
73850;SDS011;62190;51.548;5.688;2023-03-16T00:39:47;7.95;;;5.08;;
73850;SDS011;62190;51.548;5.688;2023-03-16T00:42:16;10.03;;;5.45;;
73850;SDS011;62190;51.548;5.688;2023-03-16T00:44:44;7.05;;;4.80;;
73850;SDS011;62190;51.548;5.688;2023-03-16T00:47:12;6.37;;;4.53;;
73850;SDS011;62190;51.548;5.688;2023-03-16T00:49:41;8.15;;;5.58;;
73850;SDS011;62190;51.548;5.688;2023-03-16T00:52:10;9.90;;;5.62;;
73850;SDS011;62190;51.548;5.688;2023-03-16T00:54:41;9.68;;;4.75;;
73850;SDS011;62190;51.548;5.688;2023-03-16T00:57:10;10.25;;;4.97;;
73850;SDS011;62190;51.548;5.688;2023-03-16T00:59:38;9.20;;;4.72;;
73850;SDS011;62190;51.548;5.688;2023-03-16T01:02:07;8.58;;;4.47;;
73850;SDS011;62190;51.548;5.688;2023-03-16T01:04:34;8.55;;;4.83;;
73850;SDS011;62190;51.548;5.688;2023-03-16T01:07:03;10.23;;;4.90;;
73850;SDS011;62190;51.548;5.688;2023-03-16T01:09:32;9.23;;;5.15;;
73850;SDS011;62190;51.548;5.688;2023-03-16T01:12:13;11.28;;;5.12;;
73850;SDS011;62190;51.548;5.688;2023-03-16T01:14:37;7.85;;;4.58;;
73850;SDS011;62190;51.548;5.688;2023-03-16T01:17:05;9.60;;;5.00;;
73850;SDS011;62190;51.548;5.688;2023-03-16T01:19:34;13.95;;;5.37;;
73850;SDS011;62190;51.548;5.688;2023-03-16T01:22:03;7.03;;;4.35;;
73850;SDS011;62190;51.548;5.688;2023-03-16T01:24:33;7.33;;;4.42;;
73850;SDS011;62190;51.548;5.688;2023-03-16T01:27:01;7.90;;;4.33;;
73850;SDS011;62190;51.548;5.688;2023-03-16T01:29:29;8.70;;;4.75;;
73850;SDS011;62190;51.548;5.688;2023-03-16T01:31:57;8.70;;;5.47;;
73850;SDS011;62190;51.548;5.688;2023-03-16T01:34:25;8.53;;;5.53;;
73850;SDS011;62190;51.548;5.688;2023-03-16T01:36:53;7.90;;;4.90;;
73850;SDS011;62190;51.548;5.688;2023-03-16T01:39:20;10.35;;;4.90;;
73850;SDS011;62190;51.548;5.688;2023-03-16T01:41:48;11.15;;;5.70;;
73850;SDS011;62190;51.548;5.688;2023-03-16T01:44:16;8.88;;;5.03;;
73850;SDS011;62190;51.548;5.688;2023-03-16T01:46:47;11.15;;;4.70;;
73850;SDS011;62190;51.548;5.688;2023-03-16T01:49:18;7.78;;;4.70;;
73850;SDS011;62190;51.548;5.688;2023-03-16T01:52:04;8.13;;;4.65;;
73850;SDS011;62190;51.548;5.688;2023-03-16T01:54:34;5.60;;;3.87;;
73850;SDS011;62190;51.548;5.688;2023-03-16T01:57:08;7.67;;;4.12;;
73850;SDS011;62190;51.548;5.688;2023-03-16T01:59:38;10.15;;;4.50;;
73850;SDS011;62190;51.548;5.688;2023-03-16T02:02:08;6.72;;;3.95;;
73850;SDS011;62190;51.548;5.688;2023-03-16T02:07:28;8.33;;;4.47;;
73850;SDS011;62190;51.548;5.688;2023-03-16T02:09:59;5.80;;;3.67;;
73850;SDS011;62190;51.548;5.688;2023-03-16T02:12:27;10.18;;;4.15;;
73850;SDS011;62190;51.548;5.688;2023-03-16T02:14:55;8.20;;;4.12;;
73850;SDS011;62190;51.548;5.688;2023-03-16T02:17:26;10.08;;;3.77;;
73850;SDS011;62190;51.548;5.688;2023-03-16T02:20:05;6.10;;;4.22;;
73850;SDS011;62190;51.548;5.688;2023-03-16T02:22:51;5.60;;;3.87;;
73850;SDS011;62190;51.548;5.688;2023-03-16T02:25:22;5.97;;;4.15;;
73850;SDS011;62190;51.548;5.688;2023-03-16T02:30:39;5.47;;;3.25;;
73850;SDS011;62190;51.548;5.688;2023-03-16T02:33:07;6.40;;;3.85;;
73850;SDS011;62190;51.548;5.688;2023-03-16T02:35:35;5.85;;;3.47;;
73850;SDS011;62190;51.548;5.688;2023-03-16T02:38:02;7.92;;;3.85;;
73850;SDS011;62190;51.548;5.688;2023-03-16T02:40:30;7.70;;;4.45;;
73850;SDS011;62190;51.548;5.688;2023-03-16T02:43:12;6.50;;;3.85;;
73850;SDS011;62190;51.548;5.688;2023-03-16T02:45:49;15.05;;;4.97;;
73850;SDS011;62190;51.548;5.688;2023-03-16T02:48:20;10.48;;;4.70;;
73850;SDS011;62190;51.548;5.688;2023-03-16T02:51:01;7.67;;;4.60;;
73850;SDS011;62190;51.548;5.688;2023-03-16T02:53:28;8.65;;;4.65;;
73850;SDS011;62190;51.548;5.688;2023-03-16T02:55:56;7.72;;;4.87;;
73850;SDS011;62190;51.548;5.688;2023-03-16T02:58:23;9.80;;;5.47;;
73850;SDS011;62190;51.548;5.688;2023-03-16T03:00:50;7.12;;;4.42;;
73850;SDS011;62190;51.548;5.688;2023-03-16T03:03:18;9.43;;;3.90;;
73850;SDS011;62190;51.548;5.688;2023-03-16T03:05:46;8.88;;;4.28;;
73850;SDS011;62190;51.548;5.688;2023-03-16T03:08:13;8.40;;;4.22;;
73850;SDS011;62190;51.548;5.688;2023-03-16T03:10:40;8.53;;;4.53;;
73850;SDS011;62190;51.548;5.688;2023-03-16T03:13:08;8.13;;;4.47;;
73850;SDS011;62190;51.548;5.688;2023-03-16T03:15:36;6.92;;;4.37;;
73850;SDS011;62190;51.548;5.688;2023-03-16T03:18:05;8.23;;;4.45;;
73850;SDS011;62190;51.548;5.688;2023-03-16T03:20:33;6.10;;;4.17;;
73850;SDS011;62190;51.548;5.688;2023-03-16T03:23:00;8.05;;;4.85;;
73850;SDS011;62190;51.548;5.688;2023-03-16T03:25:28;7.70;;;4.05;;
73850;SDS011;62190;51.548;5.688;2023-03-16T03:27:57;8.98;;;4.47;;
73850;SDS011;62190;51.548;5.688;2023-03-16T03:30:25;6.90;;;4.12;;
73850;SDS011;62190;51.548;5.688;2023-03-16T03:32:53;8.28;;;3.58;;
73850;SDS011;62190;51.548;5.688;2023-03-16T03:35:20;6.50;;;3.87;;
73850;SDS011;62190;51.548;5.688;2023-03-16T03:37:48;6.53;;;3.72;;
73850;SDS011;62190;51.548;5.688;2023-03-16T03:40:16;6.53;;;3.87;;
73850;SDS011;62190;51.548;5.688;2023-03-16T03:42:44;7.70;;;4.05;;
73850;SDS011;62190;51.548;5.688;2023-03-16T03:45:12;7.37;;;4.25;;
73850;SDS011;62190;51.548;5.688;2023-03-16T03:47:40;7.22;;;4.62;;
73850;SDS011;62190;51.548;5.688;2023-03-16T03:50:09;11.70;;;4.58;;
73850;SDS011;62190;51.548;5.688;2023-03-16T03:52:38;8.28;;;4.15;;
73850;SDS011;62190;51.548;5.688;2023-03-16T03:55:06;72.67;;;13.15;;
73850;SDS011;62190;51.548;5.688;2023-03-16T03:57:33;64.90;;;9.15;;
73850;SDS011;62190;51.548;5.688;2023-03-16T04:00:01;6.03;;;3.75;;
73850;SDS011;62190;51.548;5.688;2023-03-16T04:02:31;8.75;;;4.15;;
73850;SDS011;62190;51.548;5.688;2023-03-16T04:04:58;7.05;;;3.92;;
73850;SDS011;62190;51.548;5.688;2023-03-16T04:07:25;8.78;;;4.22;;
73850;SDS011;62190;51.548;5.688;2023-03-16T04:09:53;7.42;;;4.05;;
73850;SDS011;62190;51.548;5.688;2023-03-16T04:12:20;6.35;;;3.75;;
73850;SDS011;62190;51.548;5.688;2023-03-16T04:14:48;4.87;;;3.33;;
73850;SDS011;62190;51.548;5.688;2023-03-16T04:17:16;5.80;;;3.70;;
73850;SDS011;62190;51.548;5.688;2023-03-16T04:19:43;7.50;;;3.58;;
73850;SDS011;62190;51.548;5.688;2023-03-16T04:22:11;9.23;;;4.65;;
73850;SDS011;62190;51.548;5.688;2023-03-16T04:24:38;8.88;;;4.28;;
73850;SDS011;62190;51.548;5.688;2023-03-16T04:27:07;12.75;;;4.37;;
73850;SDS011;62190;51.548;5.688;2023-03-16T04:29:36;6.65;;;4.25;;
73850;SDS011;62190;51.548;5.688;2023-03-16T04:32:05;7.90;;;3.37;;
73850;SDS011;62190;51.548;5.688;2023-03-16T04:34:32;9.38;;;4.05;;
73850;SDS011;62190;51.548;5.688;2023-03-16T04:37:00;7.47;;;3.67;;
73850;SDS011;62190;51.548;5.688;2023-03-16T04:39:28;7.83;;;3.25;;
73850;SDS011;62190;51.548;5.688;2023-03-16T04:41:55;7.90;;;4.17;;
73850;SDS011;62190;51.548;5.688;2023-03-16T04:44:22;6.40;;;3.52;;
73850;SDS011;62190;51.548;5.688;2023-03-16T04:46:50;4.78;;;3.40;;
73850;SDS011;62190;51.548;5.688;2023-03-16T04:49:18;6.60;;;3.80;;
73850;SDS011;62190;51.548;5.688;2023-03-16T04:51:45;5.87;;;3.40;;
73850;SDS011;62190;51.548;5.688;2023-03-16T04:54:13;6.40;;;3.67;;
73850;SDS011;62190;51.548;5.688;2023-03-16T04:56:40;8.08;;;3.65;;
73850;SDS011;62190;51.548;5.688;2023-03-16T04:59:08;7.10;;;3.60;;
73850;SDS011;62190;51.548;5.688;2023-03-16T05:01:35;7.42;;;3.55;;
73850;SDS011;62190;51.548;5.688;2023-03-16T05:04:02;6.53;;;3.40;;
73850;SDS011;62190;51.548;5.688;2023-03-16T05:06:30;6.25;;;4.03;;
73850;SDS011;62190;51.548;5.688;2023-03-16T05:08:58;7.78;;;3.12;;
73850;SDS011;62190;51.548;5.688;2023-03-16T05:11:25;6.10;;;3.77;;
73850;SDS011;62190;51.548;5.688;2023-03-16T05:13:53;6.08;;;3.67;;
73850;SDS011;62190;51.548;5.688;2023-03-16T05:16:20;7.78;;;3.65;;
73850;SDS011;62190;51.548;5.688;2023-03-16T05:18:47;9.78;;;4.25;;
73850;SDS011;62190;51.548;5.688;2023-03-16T05:21:16;7.37;;;3.37;;
73850;SDS011;62190;51.548;5.688;2023-03-16T05:23:44;6.83;;;3.87;;
73850;SDS011;62190;51.548;5.688;2023-03-16T05:26:11;6.83;;;4.08;;
73850;SDS011;62190;51.548;5.688;2023-03-16T05:28:39;7.33;;;4.12;;
73850;SDS011;62190;51.548;5.688;2023-03-16T05:31:07;7.92;;;4.20;;
73850;SDS011;62190;51.548;5.688;2023-03-16T05:33:34;6.50;;;3.87;;
73850;SDS011;62190;51.548;5.688;2023-03-16T05:36:02;10.75;;;4.90;;
73850;SDS011;62190;51.548;5.688;2023-03-16T05:38:29;7.60;;;4.00;;
73850;SDS011;62190;51.548;5.688;2023-03-16T05:40:57;7.25;;;3.98;;
73850;SDS011;62190;51.548;5.688;2023-03-16T05:43:26;7.95;;;3.98;;
73850;SDS011;62190;51.548;5.688;2023-03-16T05:45:54;8.63;;;4.10;;
73850;SDS011;62190;51.548;5.688;2023-03-16T05:48:22;8.53;;;4.35;;
73850;SDS011;62190;51.548;5.688;2023-03-16T05:50:51;8.65;;;3.80;;
73850;SDS011;62190;51.548;5.688;2023-03-16T05:53:19;5.47;;;3.77;;
73850;SDS011;62190;51.548;5.688;2023-03-16T05:55:51;10.32;;;4.35;;
73850;SDS011;62190;51.548;5.688;2023-03-16T05:58:19;9.05;;;3.72;;
73850;SDS011;62190;51.548;5.688;2023-03-16T06:00:46;6.80;;;4.50;;
73850;SDS011;62190;51.548;5.688;2023-03-16T06:03:15;7.60;;;4.15;;
73850;SDS011;62190;51.548;5.688;2023-03-16T06:05:42;8.73;;;3.75;;
73850;SDS011;62190;51.548;5.688;2023-03-16T06:08:09;8.58;;;3.30;;
73850;SDS011;62190;51.548;5.688;2023-03-16T06:10:37;6.58;;;3.62;;
73850;SDS011;62190;51.548;5.688;2023-03-16T06:13:04;7.15;;;4.08;;
73850;SDS011;62190;51.548;5.688;2023-03-16T06:15:32;8.13;;;3.92;;
73850;SDS011;62190;51.548;5.688;2023-03-16T06:17:59;11.50;;;4.58;;
73850;SDS011;62190;51.548;5.688;2023-03-16T06:20:26;9.55;;;5.00;;
73850;SDS011;62190;51.548;5.688;2023-03-16T06:22:53;7.17;;;4.20;;
73850;SDS011;62190;51.548;5.688;2023-03-16T06:25:21;5.83;;;3.80;;
73850;SDS011;62190;51.548;5.688;2023-03-16T06:27:48;9.15;;;4.62;;
73850;SDS011;62190;51.548;5.688;2023-03-16T06:30:16;7.00;;;3.85;;
73850;SDS011;62190;51.548;5.688;2023-03-16T06:32:43;8.45;;;3.70;;
73850;SDS011;62190;51.548;5.688;2023-03-16T06:35:11;16.10;;;7.45;;
73850;SDS011;62190;51.548;5.688;2023-03-16T06:37:38;7.90;;;3.62;;
73850;SDS011;62190;51.548;5.688;2023-03-16T06:40:06;6.78;;;3.72;;
73850;SDS011;62190;51.548;5.688;2023-03-16T06:42:34;10.78;;;4.30;;
73850;SDS011;62190;51.548;5.688;2023-03-16T06:45:02;10.60;;;4.47;;
73850;SDS011;62190;51.548;5.688;2023-03-16T06:47:29;14.30;;;4.25;;
73850;SDS011;62190;51.548;5.688;2023-03-16T06:49:57;12.75;;;4.30;;
73850;SDS011;62190;51.548;5.688;2023-03-16T06:52:24;10.48;;;4.17;;
73850;SDS011;62190;51.548;5.688;2023-03-16T06:54:51;9.48;;;5.60;;
73850;SDS011;62190;51.548;5.688;2023-03-16T06:57:19;7.30;;;4.28;;
73850;SDS011;62190;51.548;5.688;2023-03-16T06:59:46;8.33;;;4.70;;
73850;SDS011;62190;51.548;5.688;2023-03-16T07:02:13;10.03;;;4.75;;
73850;SDS011;62190;51.548;5.688;2023-03-16T07:04:41;10.08;;;5.53;;
73850;SDS011;62190;51.548;5.688;2023-03-16T07:07:09;9.73;;;4.72;;
73850;SDS011;62190;51.548;5.688;2023-03-16T07:09:36;9.05;;;5.60;;
73850;SDS011;62190;51.548;5.688;2023-03-16T07:12:04;10.55;;;5.00;;
73850;SDS011;62190;51.548;5.688;2023-03-16T07:14:31;9.78;;;5.28;;
73850;SDS011;62190;51.548;5.688;2023-03-16T07:16:58;10.85;;;5.05;;
73850;SDS011;62190;51.548;5.688;2023-03-16T07:19:26;9.90;;;5.00;;
73850;SDS011;62190;51.548;5.688;2023-03-16T07:21:54;10.60;;;5.15;;
73850;SDS011;62190;51.548;5.688;2023-03-16T07:24:21;8.98;;;5.15;;
73850;SDS011;62190;51.548;5.688;2023-03-16T07:26:48;10.45;;;5.35;;
73850;SDS011;62190;51.548;5.688;2023-03-16T07:29:17;8.25;;;4.90;;
73850;SDS011;62190;51.548;5.688;2023-03-16T07:31:44;10.63;;;5.60;;
73850;SDS011;62190;51.548;5.688;2023-03-16T07:34:12;9.50;;;5.08;;
73850;SDS011;62190;51.548;5.688;2023-03-16T07:36:39;9.33;;;4.92;;
73850;SDS011;62190;51.548;5.688;2023-03-16T07:39:06;11.43;;;5.55;;
73850;SDS011;62190;51.548;5.688;2023-03-16T07:41:34;13.13;;;5.33;;
73850;SDS011;62190;51.548;5.688;2023-03-16T07:44:01;13.72;;;5.00;;
73850;SDS011;62190;51.548;5.688;2023-03-16T07:46:28;8.08;;;4.22;;
73850;SDS011;62190;51.548;5.688;2023-03-16T07:48:57;7.20;;;4.22;;
73850;SDS011;62190;51.548;5.688;2023-03-16T07:51:24;9.13;;;5.15;;
73850;SDS011;62190;51.548;5.688;2023-03-16T07:53:51;9.03;;;4.08;;
73850;SDS011;62190;51.548;5.688;2023-03-16T07:56:19;9.30;;;3.77;;
73850;SDS011;62190;51.548;5.688;2023-03-16T07:58:46;10.28;;;4.78;;
73850;SDS011;62190;51.548;5.688;2023-03-16T08:01:13;8.60;;;4.35;;
73850;SDS011;62190;51.548;5.688;2023-03-16T08:03:40;10.45;;;4.83;;
73850;SDS011;62190;51.548;5.688;2023-03-16T08:06:09;6.87;;;4.42;;
73850;SDS011;62190;51.548;5.688;2023-03-16T08:08:36;6.80;;;4.12;;
73850;SDS011;62190;51.548;5.688;2023-03-16T08:11:04;6.50;;;3.87;;
73850;SDS011;62190;51.548;5.688;2023-03-16T08:13:31;6.35;;;3.83;;
73850;SDS011;62190;51.548;5.688;2023-03-16T08:15:59;6.65;;;3.58;;
73850;SDS011;62190;51.548;5.688;2023-03-16T08:18:27;5.33;;;3.52;;
73850;SDS011;62190;51.548;5.688;2023-03-16T08:20:55;7.10;;;3.35;;
73850;SDS011;62190;51.548;5.688;2023-03-16T08:23:23;9.85;;;4.03;;
73850;SDS011;62190;51.548;5.688;2023-03-16T08:25:51;6.40;;;3.42;;
73850;SDS011;62190;51.548;5.688;2023-03-16T08:28:20;5.10;;;3.10;;
73850;SDS011;62190;51.548;5.688;2023-03-16T08:30:50;9.60;;;3.67;;
73850;SDS011;62190;51.548;5.688;2023-03-16T08:33:18;5.45;;;3.45;;
73850;SDS011;62190;51.548;5.688;2023-03-16T08:35:46;5.58;;;3.08;;
73850;SDS011;62190;51.548;5.688;2023-03-16T08:38:14;5.58;;;2.75;;
73850;SDS011;62190;51.548;5.688;2023-03-16T08:40:41;6.37;;;2.85;;
73850;SDS011;62190;51.548;5.688;2023-03-16T08:43:15;7.40;;;3.27;;
73850;SDS011;62190;51.548;5.688;2023-03-16T08:45:47;5.80;;;3.15;;
73850;SDS011;62190;51.548;5.688;2023-03-16T08:48:15;5.78;;;3.00;;
73850;SDS011;62190;51.548;5.688;2023-03-16T08:50:44;8.13;;;3.40;;
73850;SDS011;62190;51.548;5.688;2023-03-16T08:53:12;4.92;;;2.87;;
73850;SDS011;62190;51.548;5.688;2023-03-16T08:55:40;5.90;;;3.05;;
73850;SDS011;62190;51.548;5.688;2023-03-16T08:58:08;5.75;;;3.08;;
73850;SDS011;62190;51.548;5.688;2023-03-16T09:00:37;4.45;;;2.75;;
73850;SDS011;62190;51.548;5.688;2023-03-16T09:03:04;4.65;;;3.27;;
73850;SDS011;62190;51.548;5.688;2023-03-16T09:05:32;5.90;;;2.60;;
73850;SDS011;62190;51.548;5.688;2023-03-16T09:07:59;7.37;;;2.65;;
73850;SDS011;62190;51.548;5.688;2023-03-16T09:10:28;5.45;;;2.52;;
73850;SDS011;62190;51.548;5.688;2023-03-16T09:12:57;8.15;;;2.90;;
73850;SDS011;62190;51.548;5.688;2023-03-16T09:15:24;4.53;;;2.05;;
73850;SDS011;62190;51.548;5.688;2023-03-16T09:17:52;3.98;;;2.40;;
73850;SDS011;62190;51.548;5.688;2023-03-16T09:20:21;4.62;;;1.95;;
73850;SDS011;62190;51.548;5.688;2023-03-16T09:22:49;7.75;;;2.55;;
73850;SDS011;62190;51.548;5.688;2023-03-16T09:25:16;4.40;;;2.80;;
73850;SDS011;62190;51.548;5.688;2023-03-16T09:27:45;6.12;;;2.37;;
73850;SDS011;62190;51.548;5.688;2023-03-16T09:30:12;4.70;;;2.15;;
73850;SDS011;62190;51.548;5.688;2023-03-16T09:32:41;6.47;;;2.50;;
73850;SDS011;62190;51.548;5.688;2023-03-16T09:35:09;3.67;;;2.12;;
73850;SDS011;62190;51.548;5.688;2023-03-16T09:37:36;4.08;;;2.10;;
73850;SDS011;62190;51.548;5.688;2023-03-16T09:40:04;5.40;;;2.72;;
73850;SDS011;62190;51.548;5.688;2023-03-16T09:42:40;3.45;;;2.00;;
73850;SDS011;62190;51.548;5.688;2023-03-16T09:45:30;3.92;;;2.08;;
73850;SDS011;62190;51.548;5.688;2023-03-16T09:47:51;2.95;;;1.82;;
73850;SDS011;62190;51.548;5.688;2023-03-16T09:50:25;5.50;;;1.72;;
73850;SDS011;62190;51.548;5.688;2023-03-16T09:52:59;4.60;;;1.90;;
73850;SDS011;62190;51.548;5.688;2023-03-16T09:55:30;3.65;;;1.82;;
73850;SDS011;62190;51.548;5.688;2023-03-16T09:57:59;4.70;;;1.95;;
73850;SDS011;62190;51.548;5.688;2023-03-16T10:00:33;3.58;;;1.70;;
73850;SDS011;62190;51.548;5.688;2023-03-16T10:03:08;4.00;;;2.10;;
73850;SDS011;62190;51.548;5.688;2023-03-16T10:05:34;3.02;;;1.67;;
73850;SDS011;62190;51.548;5.688;2023-03-16T10:08:07;3.55;;;1.77;;
73850;SDS011;62190;51.548;5.688;2023-03-16T10:16:44;6.22;;;2.02;;
73850;SDS011;62190;51.548;5.688;2023-03-16T10:19:09;2.92;;;1.50;;
73850;SDS011;62190;51.548;5.688;2023-03-16T10:21:40;4.55;;;1.75;;
73850;SDS011;62190;51.548;5.688;2023-03-16T10:24:30;3.50;;;1.67;;
73850;SDS011;62190;51.548;5.688;2023-03-16T10:27:15;5.67;;;1.70;;
73850;SDS011;62190;51.548;5.688;2023-03-16T10:29:42;2.95;;;1.80;;
73850;SDS011;62190;51.548;5.688;2023-03-16T10:32:12;3.30;;;1.65;;
73850;SDS011;62190;51.548;5.688;2023-03-16T10:37:19;4.10;;;1.90;;
73850;SDS011;62190;51.548;5.688;2023-03-16T10:39:47;2.52;;;1.52;;
73850;SDS011;62190;51.548;5.688;2023-03-16T10:42:16;9.05;;;1.77;;
73850;SDS011;62190;51.548;5.688;2023-03-16T10:44:46;3.47;;;1.40;;
73850;SDS011;62190;51.548;5.688;2023-03-16T10:47:23;3.10;;;1.77;;
73850;SDS011;62190;51.548;5.688;2023-03-16T10:49:47;2.95;;;1.55;;
73850;SDS011;62190;51.548;5.688;2023-03-16T10:52:18;4.83;;;2.17;;
73850;SDS011;62190;51.548;5.688;2023-03-16T10:55:05;5.12;;;1.90;;
73850;SDS011;62190;51.548;5.688;2023-03-16T10:57:40;7.00;;;1.57;;
73850;SDS011;62190;51.548;5.688;2023-03-16T11:02:41;4.25;;;1.60;;
73850;SDS011;62190;51.548;5.688;2023-03-16T11:05:12;5.25;;;1.90;;
73850;SDS011;62190;51.548;5.688;2023-03-16T11:07:47;4.25;;;1.82;;
73850;SDS011;62190;51.548;5.688;2023-03-16T11:10:43;3.90;;;1.90;;
73850;SDS011;62190;51.548;5.688;2023-03-16T11:12:59;2.70;;;1.55;;
73850;SDS011;62190;51.548;5.688;2023-03-16T11:15:32;3.62;;;1.70;;
73850;SDS011;62190;51.548;5.688;2023-03-16T11:17:58;2.47;;;1.47;;
73850;SDS011;62190;51.548;5.688;2023-03-16T11:20:26;5.53;;;1.50;;
73850;SDS011;62190;51.548;5.688;2023-03-16T11:22:53;2.77;;;1.30;;
73850;SDS011;62190;51.548;5.688;2023-03-16T11:25:26;4.10;;;1.57;;
73850;SDS011;62190;51.548;5.688;2023-03-16T11:30:43;2.60;;;1.45;;
73850;SDS011;62190;51.548;5.688;2023-03-16T11:33:25;3.42;;;1.32;;
73850;SDS011;62190;51.548;5.688;2023-03-16T11:36:11;3.20;;;1.60;;
73850;SDS011;62190;51.548;5.688;2023-03-16T11:41:45;4.53;;;1.82;;
73850;SDS011;62190;51.548;5.688;2023-03-16T11:44:37;2.25;;;1.42;;
73850;SDS011;62190;51.548;5.688;2023-03-16T11:47:11;3.80;;;1.30;;
73850;SDS011;62190;51.548;5.688;2023-03-16T11:49:45;3.98;;;1.35;;
73850;SDS011;62190;51.548;5.688;2023-03-16T11:52:16;4.33;;;1.70;;
73850;SDS011;62190;51.548;5.688;2023-03-16T12:09:00;6.53;;;1.57;;
73850;SDS011;62190;51.548;5.688;2023-03-16T12:11:36;6.22;;;1.52;;
73850;SDS011;62190;51.548;5.688;2023-03-16T12:14:04;2.55;;;1.45;;
73850;SDS011;62190;51.548;5.688;2023-03-16T12:16:45;3.05;;;1.40;;
73850;SDS011;62190;51.548;5.688;2023-03-16T12:19:21;2.30;;;1.12;;
73850;SDS011;62190;51.548;5.688;2023-03-16T12:21:47;5.37;;;1.65;;
73850;SDS011;62190;51.548;5.688;2023-03-16T12:24:19;5.20;;;2.72;;
73850;SDS011;62190;51.548;5.688;2023-03-16T12:26:51;3.35;;;1.30;;
73850;SDS011;62190;51.548;5.688;2023-03-16T12:29:32;4.42;;;1.67;;
73850;SDS011;62190;51.548;5.688;2023-03-16T12:34:49;3.67;;;1.50;;
73850;SDS011;62190;51.548;5.688;2023-03-16T12:37:20;4.37;;;1.35;;
73850;SDS011;62190;51.548;5.688;2023-03-16T12:39:59;3.92;;;1.45;;
73850;SDS011;62190;51.548;5.688;2023-03-16T12:42:34;4.30;;;1.40;;
73850;SDS011;62190;51.548;5.688;2023-03-16T12:45:31;4.67;;;1.40;;
73850;SDS011;62190;51.548;5.688;2023-03-16T12:50:18;4.85;;;1.05;;
73850;SDS011;62190;51.548;5.688;2023-03-16T12:52:49;5.08;;;1.17;;
73850;SDS011;62190;51.548;5.688;2023-03-16T12:55:18;3.60;;;1.57;;
73850;SDS011;62190;51.548;5.688;2023-03-16T12:57:48;3.22;;;1.12;;
73850;SDS011;62190;51.548;5.688;2023-03-16T13:00:16;4.03;;;1.10;;
73850;SDS011;62190;51.548;5.688;2023-03-16T13:02:49;3.17;;;1.55;;
73850;SDS011;62190;51.548;5.688;2023-03-16T13:05:30;3.05;;;1.52;;
73850;SDS011;62190;51.548;5.688;2023-03-16T13:08:03;3.70;;;1.20;;
73850;SDS011;62190;51.548;5.688;2023-03-16T13:10:33;4.07;;;1.43;;
73850;SDS011;62190;51.548;5.688;2023-03-16T13:13:08;4.17;;;1.47;;
73850;SDS011;62190;51.548;5.688;2023-03-16T13:15:37;3.00;;;1.07;;
73850;SDS011;62190;51.548;5.688;2023-03-16T13:20:57;3.17;;;1.22;;
73850;SDS011;62190;51.548;5.688;2023-03-16T13:23:27;3.10;;;1.32;;
73850;SDS011;62190;51.548;5.688;2023-03-16T13:28:35;5.03;;;1.10;;
73850;SDS011;62190;51.548;5.688;2023-03-16T13:31:01;3.42;;;1.27;;
73850;SDS011;62190;51.548;5.688;2023-03-16T13:33:32;3.08;;;0.82;;
73850;SDS011;62190;51.548;5.688;2023-03-16T13:36:01;3.25;;;0.80;;
73850;SDS011;62190;51.548;5.688;2023-03-16T13:38:31;5.00;;;1.20;;
73850;SDS011;62190;51.548;5.688;2023-03-16T13:41:04;2.92;;;0.85;;
73850;SDS011;62190;51.548;5.688;2023-03-16T13:43:29;2.80;;;0.93;;
73850;SDS011;62190;51.548;5.688;2023-03-16T13:45:58;3.77;;;1.62;;
73850;SDS011;62190;51.548;5.688;2023-03-16T13:48:35;3.08;;;1.45;;
73850;SDS011;62190;51.548;5.688;2023-03-16T13:51:04;2.08;;;1.00;;
73850;SDS011;62190;51.548;5.688;2023-03-16T13:53:38;2.90;;;1.20;;
73850;SDS011;62190;51.548;5.688;2023-03-16T13:56:05;4.47;;;1.45;;
73850;SDS011;62190;51.548;5.688;2023-03-16T13:58:37;2.87;;;0.93;;
73850;SDS011;62190;51.548;5.688;2023-03-16T14:01:03;2.98;;;1.02;;
73850;SDS011;62190;51.548;5.688;2023-03-16T14:03:34;3.45;;;1.12;;
73850;SDS011;62190;51.548;5.688;2023-03-16T14:06:03;4.47;;;1.30;;
73850;SDS011;62190;51.548;5.688;2023-03-16T14:08:32;3.17;;;1.15;;
73850;SDS011;62190;51.548;5.688;2023-03-16T14:10:59;3.27;;;0.85;;
73850;SDS011;62190;51.548;5.688;2023-03-16T14:16:02;3.62;;;1.20;;
73850;SDS011;62190;51.548;5.688;2023-03-16T14:18:41;4.55;;;1.25;;
73850;SDS011;62190;51.548;5.688;2023-03-16T14:21:15;2.70;;;1.12;;
73850;SDS011;62190;51.548;5.688;2023-03-16T14:23:45;5.12;;;1.25;;
73850;SDS011;62190;51.548;5.688;2023-03-16T14:26:15;1.50;;;0.93;;
73850;SDS011;62190;51.548;5.688;2023-03-16T14:28:54;3.08;;;1.77;;
73850;SDS011;62190;51.548;5.688;2023-03-16T14:31:36;3.05;;;1.42;;
73850;SDS011;62190;51.548;5.688;2023-03-16T14:34:06;2.47;;;1.07;;
73850;SDS011;62190;51.548;5.688;2023-03-16T14:37:03;4.20;;;1.37;;
73850;SDS011;62190;51.548;5.688;2023-03-16T14:39:35;3.58;;;1.40;;
73850;SDS011;62190;51.548;5.688;2023-03-16T14:42:06;4.67;;;1.37;;
73850;SDS011;62190;51.548;5.688;2023-03-16T14:44:40;3.52;;;1.00;;
73850;SDS011;62190;51.548;5.688;2023-03-16T14:47:09;4.40;;;1.40;;
73850;SDS011;62190;51.548;5.688;2023-03-16T14:49:40;1.98;;;1.17;;
73850;SDS011;62190;51.548;5.688;2023-03-16T14:52:12;2.15;;;0.95;;
73850;SDS011;62190;51.548;5.688;2023-03-16T14:54:56;3.87;;;1.27;;
73850;SDS011;62190;51.548;5.688;2023-03-16T14:57:26;3.27;;;0.93;;
73850;SDS011;62190;51.548;5.688;2023-03-16T14:59:54;6.15;;;1.20;;
73850;SDS011;62190;51.548;5.688;2023-03-16T15:02:26;5.00;;;1.00;;
73850;SDS011;62190;51.548;5.688;2023-03-16T15:04:54;3.95;;;1.50;;
73850;SDS011;62190;51.548;5.688;2023-03-16T15:07:24;4.83;;;1.02;;
73850;SDS011;62190;51.548;5.688;2023-03-16T15:09:55;4.12;;;1.07;;
73850;SDS011;62190;51.548;5.688;2023-03-16T15:12:29;4.17;;;1.12;;
73850;SDS011;62190;51.548;5.688;2023-03-16T15:14:58;4.25;;;1.32;;
73850;SDS011;62190;51.548;5.688;2023-03-16T15:17:41;1.90;;;0.90;;
73850;SDS011;62190;51.548;5.688;2023-03-16T15:20:15;3.47;;;1.02;;
73850;SDS011;62190;51.548;5.688;2023-03-16T15:22:39;6.83;;;1.22;;
73850;SDS011;62190;51.548;5.688;2023-03-16T15:25:16;4.53;;;1.30;;
73850;SDS011;62190;51.548;5.688;2023-03-16T15:27:52;3.77;;;1.20;;
73850;SDS011;62190;51.548;5.688;2023-03-16T15:30:23;3.35;;;1.00;;
73850;SDS011;62190;51.548;5.688;2023-03-16T15:32:53;3.67;;;0.90;;
73850;SDS011;62190;51.548;5.688;2023-03-16T15:35:20;3.42;;;1.57;;
73850;SDS011;62190;51.548;5.688;2023-03-16T15:37:48;3.05;;;1.40;;
73850;SDS011;62190;51.548;5.688;2023-03-16T15:40:21;3.25;;;0.90;;
73850;SDS011;62190;51.548;5.688;2023-03-16T15:42:46;8.93;;;1.32;;
73850;SDS011;62190;51.548;5.688;2023-03-16T15:45:14;1.60;;;1.10;;
73850;SDS011;62190;51.548;5.688;2023-03-16T15:47:43;3.37;;;1.20;;
73850;SDS011;62190;51.548;5.688;2023-03-16T15:50:11;2.67;;;1.17;;